sensor_id;sensor_type;location;lat;lon;timestamp;pressure;altitude;pressure_sealevel;temperature;humidity
6668;BME280;3370;47.712;9.082;2023-04-01T00:00:31;96035.38;;;6.73;97.18
6668;BME280;3370;47.712;9.082;2023-04-01T00:02:56;96038.75;;;6.74;96.89
6668;BME280;3370;47.712;9.082;2023-04-01T00:05:22;96042.28;;;6.71;100.00
6668;BME280;3370;47.712;9.082;2023-04-01T00:07:50;96032.25;;;6.66;99.88
6668;BME280;3370;47.712;9.082;2023-04-01T00:10:17;96041.66;;;6.66;98.93
6668;BME280;3370;47.712;9.082;2023-04-01T00:12:43;96042.59;;;6.63;100.00
6668;BME280;3370;47.712;9.082;2023-04-01T00:15:11;96042.75;;;6.60;100.00
6668;BME280;3370;47.712;9.082;2023-04-01T00:17:37;96043.03;;;6.54;100.00
6668;BME280;3370;47.712;9.082;2023-04-01T00:20:05;96045.31;;;6.41;100.00
6668;BME280;3370;47.712;9.082;2023-04-01T00:22:31;96040.81;;;6.46;100.00
6668;BME280;3370;47.712;9.082;2023-04-01T00:24:57;96037.09;;;6.35;100.00
6668;BME280;3370;47.712;9.082;2023-04-01T00:27:22;96047.56;;;6.28;100.00
6668;BME280;3370;47.712;9.082;2023-04-01T00:29:48;96046.00;;;6.26;100.00
6668;BME280;3370;47.712;9.082;2023-04-01T00:32:14;96049.66;;;6.20;100.00
6668;BME280;3370;47.712;9.082;2023-04-01T00:34:41;96057.38;;;6.19;100.00
6668;BME280;3370;47.712;9.082;2023-04-01T00:37:07;96066.72;;;6.18;100.00
6668;BME280;3370;47.712;9.082;2023-04-01T00:39:34;96065.22;;;6.14;100.00
6668;BME280;3370;47.712;9.082;2023-04-01T00:42:03;96060.25;;;6.11;100.00
6668;BME280;3370;47.712;9.082;2023-04-01T00:44:33;96075.06;;;6.03;100.00
6668;BME280;3370;47.712;9.082;2023-04-01T00:47:00;96078.09;;;5.90;100.00
6668;BME280;3370;47.712;9.082;2023-04-01T00:49:34;96078.31;;;5.86;100.00
6668;BME280;3370;47.712;9.082;2023-04-01T00:52:04;96076.13;;;5.76;100.00
6668;BME280;3370;47.712;9.082;2023-04-01T00:54:32;96070.25;;;5.74;100.00
6668;BME280;3370;47.712;9.082;2023-04-01T00:57:08;96059.97;;;5.76;100.00
6668;BME280;3370;47.712;9.082;2023-04-01T00:59:47;96065.22;;;5.73;100.00
6668;BME280;3370;47.712;9.082;2023-04-01T01:02:17;96071.97;;;5.74;100.00
6668;BME280;3370;47.712;9.082;2023-04-01T01:04:44;96068.66;;;5.72;100.00
6668;BME280;3370;47.712;9.082;2023-04-01T01:10:34;96061.81;;;5.72;100.00
6668;BME280;3370;47.712;9.082;2023-04-01T01:13:41;96062.41;;;5.79;100.00
6668;BME280;3370;47.712;9.082;2023-04-01T01:16:29;96062.03;;;5.68;100.00
6668;BME280;3370;47.712;9.082;2023-04-01T01:27:15;96049.91;;;5.52;100.00
6668;BME280;3370;47.712;9.082;2023-04-01T01:37:46;96033.13;;;5.47;100.00
6668;BME280;3370;47.712;9.082;2023-04-01T01:40:13;96029.75;;;5.46;100.00
6668;BME280;3370;47.712;9.082;2023-04-01T01:42:47;96032.31;;;5.46;100.00
6668;BME280;3370;47.712;9.082;2023-04-01T01:45:18;96026.41;;;5.46;100.00
6668;BME280;3370;47.712;9.082;2023-04-01T01:47:45;96027.91;;;5.50;100.00
6668;BME280;3370;47.712;9.082;2023-04-01T01:50:14;96016.91;;;5.49;100.00
6668;BME280;3370;47.712;9.082;2023-04-01T01:52:41;96015.81;;;5.55;100.00
6668;BME280;3370;47.712;9.082;2023-04-01T01:55:31;96002.84;;;5.60;100.00
6668;BME280;3370;47.712;9.082;2023-04-01T01:58:02;96001.81;;;5.64;100.00
6668;BME280;3370;47.712;9.082;2023-04-01T02:00:30;96000.66;;;5.71;100.00
6668;BME280;3370;47.712;9.082;2023-04-01T02:02:57;96008.41;;;5.69;100.00
6668;BME280;3370;47.712;9.082;2023-04-01T02:05:26;96012.72;;;5.88;100.00
6668;BME280;3370;47.712;9.082;2023-04-01T02:08:11;96019.94;;;5.99;100.00
6668;BME280;3370;47.712;9.082;2023-04-01T02:10:42;96006.44;;;6.16;100.00
6668;BME280;3370;47.712;9.082;2023-04-01T02:13:40;95997.06;;;6.16;100.00
6668;BME280;3370;47.712;9.082;2023-04-01T02:16:20;96002.16;;;6.16;100.00
6668;BME280;3370;47.712;9.082;2023-04-01T02:18:50;96006.03;;;6.25;100.00
6668;BME280;3370;47.712;9.082;2023-04-01T02:21:21;96001.63;;;6.28;100.00
6668;BME280;3370;47.712;9.082;2023-04-01T02:23:48;96010.31;;;6.24;100.00
6668;BME280;3370;47.712;9.082;2023-04-01T02:26:15;96009.22;;;6.30;100.00
6668;BME280;3370;47.712;9.082;2023-04-01T02:28:43;96004.81;;;6.33;100.00
6668;BME280;3370;47.712;9.082;2023-04-01T02:31:11;96012.53;;;6.32;100.00
6668;BME280;3370;47.712;9.082;2023-04-01T02:33:39;96003.81;;;6.17;100.00
6668;BME280;3370;47.712;9.082;2023-04-01T02:36:06;96008.81;;;6.20;100.00
6668;BME280;3370;47.712;9.082;2023-04-01T02:38:36;96009.06;;;6.14;100.00
6668;BME280;3370;47.712;9.082;2023-04-01T02:41:03;96017.28;;;6.21;100.00
6668;BME280;3370;47.712;9.082;2023-04-01T02:43:29;96022.84;;;6.10;100.00
6668;BME280;3370;47.712;9.082;2023-04-01T02:45:55;96023.28;;;6.20;100.00
6668;BME280;3370;47.712;9.082;2023-04-01T02:48:20;96003.94;;;6.14;100.00
6668;BME280;3370;47.712;9.082;2023-04-01T02:50:46;96005.47;;;6.18;100.00
6668;BME280;3370;47.712;9.082;2023-04-01T02:53:12;96005.63;;;6.15;100.00
6668;BME280;3370;47.712;9.082;2023-04-01T02:55:38;96010.97;;;6.09;100.00
6668;BME280;3370;47.712;9.082;2023-04-01T02:58:04;96012.72;;;6.08;100.00
6668;BME280;3370;47.712;9.082;2023-04-01T03:00:30;96003.25;;;6.10;100.00
6668;BME280;3370;47.712;9.082;2023-04-01T03:02:56;96006.72;;;6.09;100.00
6668;BME280;3370;47.712;9.082;2023-04-01T03:05:22;96006.44;;;6.16;100.00
6668;BME280;3370;47.712;9.082;2023-04-01T03:07:48;96004.53;;;6.21;100.00
6668;BME280;3370;47.712;9.082;2023-04-01T03:10:14;96005.84;;;6.29;100.00
6668;BME280;3370;47.712;9.082;2023-04-01T03:12:40;96014.25;;;6.31;100.00
6668;BME280;3370;47.712;9.082;2023-04-01T03:15:06;96014.88;;;6.37;99.52
6668;BME280;3370;47.712;9.082;2023-04-01T03:17:32;96014.19;;;6.33;100.00
6668;BME280;3370;47.712;9.082;2023-04-01T03:19:58;96010.03;;;6.30;100.00
6668;BME280;3370;47.712;9.082;2023-04-01T03:22:24;96015.00;;;6.33;98.59
6668;BME280;3370;47.712;9.082;2023-04-01T03:24:50;96006.59;;;6.31;99.85
6668;BME280;3370;47.712;9.082;2023-04-01T03:27:15;96007.84;;;6.42;97.83
6668;BME280;3370;47.712;9.082;2023-04-01T03:29:41;96005.78;;;6.31;99.39
6668;BME280;3370;47.712;9.082;2023-04-01T03:32:07;96006.59;;;6.31;98.15
6668;BME280;3370;47.712;9.082;2023-04-01T03:34:33;96009.03;;;6.35;99.71
6668;BME280;3370;47.712;9.082;2023-04-01T03:36:58;96013.91;;;6.39;98.99
6668;BME280;3370;47.712;9.082;2023-04-01T03:39:24;96011.28;;;6.41;96.05
6668;BME280;3370;47.712;9.082;2023-04-01T03:41:50;96006.75;;;6.47;95.31
6668;BME280;3370;47.712;9.082;2023-04-01T03:44:16;96007.75;;;6.43;95.27
6668;BME280;3370;47.712;9.082;2023-04-01T03:46:42;96002.91;;;6.56;93.06
6668;BME280;3370;47.712;9.082;2023-04-01T03:49:09;96005.63;;;6.53;95.38
6668;BME280;3370;47.712;9.082;2023-04-01T03:51:42;96005.63;;;6.53;93.00
6668;BME280;3370;47.712;9.082;2023-04-01T03:54:10;96000.38;;;6.56;92.35
6668;BME280;3370;47.712;9.082;2023-04-01T03:56:37;96003.00;;;6.55;93.87
6668;BME280;3370;47.712;9.082;2023-04-01T03:59:05;95992.09;;;6.51;94.89
6668;BME280;3370;47.712;9.082;2023-04-01T04:01:31;95999.34;;;6.60;93.52
6668;BME280;3370;47.712;9.082;2023-04-01T04:03:57;95990.31;;;6.53;93.35
6668;BME280;3370;47.712;9.082;2023-04-01T04:06:24;95988.63;;;6.52;96.64
6668;BME280;3370;47.712;9.082;2023-04-01T04:08:50;95996.38;;;6.50;94.32
6668;BME280;3370;47.712;9.082;2023-04-01T04:11:19;95993.63;;;6.55;95.64
6668;BME280;3370;47.712;9.082;2023-04-01T04:13:45;96007.28;;;6.54;93.89
6668;BME280;3370;47.712;9.082;2023-04-01T04:16:13;95998.97;;;6.49;93.20
6668;BME280;3370;47.712;9.082;2023-04-01T04:18:39;96003.22;;;6.50;94.52
6668;BME280;3370;47.712;9.082;2023-04-01T04:21:05;96013.28;;;6.53;92.14
6668;BME280;3370;47.712;9.082;2023-04-01T04:23:32;96011.50;;;6.55;91.86
6668;BME280;3370;47.712;9.082;2023-04-01T04:26:06;96020.09;;;6.52;92.54
6668;BME280;3370;47.712;9.082;2023-04-01T04:28:33;96024.13;;;6.58;92.88
6668;BME280;3370;47.712;9.082;2023-04-01T04:30:58;96019.97;;;6.56;93.03
6668;BME280;3370;47.712;9.082;2023-04-01T04:33:25;96027.69;;;6.54;94.32
6668;BME280;3370;47.712;9.082;2023-04-01T04:35:51;96024.25;;;6.55;94.47
6668;BME280;3370;47.712;9.082;2023-04-01T04:38:20;96026.31;;;6.47;96.49
6668;BME280;3370;47.712;9.082;2023-04-01T04:40:46;96036.41;;;6.50;96.08
6668;BME280;3370;47.712;9.082;2023-04-01T04:43:13;96024.94;;;6.40;97.44
6668;BME280;3370;47.712;9.082;2023-04-01T04:45:40;96027.84;;;6.32;96.81
6668;BME280;3370;47.712;9.082;2023-04-01T04:48:15;96039.91;;;6.28;96.44
6668;BME280;3370;47.712;9.082;2023-04-01T04:50:47;96039.69;;;6.14;96.28
6668;BME280;3370;47.712;9.082;2023-04-01T04:53:15;96031.56;;;6.06;98.11
6668;BME280;3370;47.712;9.082;2023-04-01T04:55:46;96041.88;;;6.03;98.05
6668;BME280;3370;47.712;9.082;2023-04-01T04:58:12;96040.50;;;5.94;99.55
6668;BME280;3370;47.712;9.082;2023-04-01T05:00:38;96038.94;;;5.91;99.00
6668;BME280;3370;47.712;9.082;2023-04-01T05:03:04;96040.56;;;5.92;100.00
6668;BME280;3370;47.712;9.082;2023-04-01T05:05:30;96050.69;;;5.95;100.00
6668;BME280;3370;47.712;9.082;2023-04-01T05:07:56;96037.16;;;5.93;100.00
6668;BME280;3370;47.712;9.082;2023-04-01T05:10:21;96036.44;;;5.90;100.00
6668;BME280;3370;47.712;9.082;2023-04-01T05:12:47;96032.84;;;5.94;100.00
6668;BME280;3370;47.712;9.082;2023-04-01T05:15:13;96034.03;;;5.87;100.00
6668;BME280;3370;47.712;9.082;2023-04-01T05:17:39;96038.25;;;5.88;100.00
6668;BME280;3370;47.712;9.082;2023-04-01T05:20:06;96037.16;;;5.93;100.00
6668;BME280;3370;47.712;9.082;2023-04-01T05:22:32;96038.19;;;5.89;100.00
6668;BME280;3370;47.712;9.082;2023-04-01T05:24:57;96038.88;;;5.93;100.00
6668;BME280;3370;47.712;9.082;2023-04-01T05:27:23;96045.69;;;5.92;100.00
6668;BME280;3370;47.712;9.082;2023-04-01T05:29:49;96041.56;;;5.90;100.00
6668;BME280;3370;47.712;9.082;2023-04-01T05:32:15;96038.31;;;5.86;100.00
6668;BME280;3370;47.712;9.082;2023-04-01T05:34:41;96033.69;;;5.94;100.00
6668;BME280;3370;47.712;9.082;2023-04-01T05:37:07;96035.09;;;6.02;100.00
6668;BME280;3370;47.712;9.082;2023-04-01T05:39:37;96046.16;;;6.02;100.00
6668;BME280;3370;47.712;9.082;2023-04-01T05:42:06;96045.06;;;6.08;100.00
6668;BME280;3370;47.712;9.082;2023-04-01T05:44:31;96047.69;;;6.06;98.31
6668;BME280;3370;47.712;9.082;2023-04-01T05:46:57;96049.97;;;6.12;97.72
6668;BME280;3370;47.712;9.082;2023-04-01T05:49:23;96046.59;;;6.12;97.64
6668;BME280;3370;47.712;9.082;2023-04-01T05:51:49;96032.94;;;6.13;97.24
6668;BME280;3370;47.712;9.082;2023-04-01T05:54:14;96038.06;;;6.13;99.16
6668;BME280;3370;47.712;9.082;2023-04-01T05:56:40;96046.81;;;6.07;98.81
6668;BME280;3370;47.712;9.082;2023-04-01T05:59:06;96044.31;;;6.06;97.98
6668;BME280;3370;47.712;9.082;2023-04-01T06:01:31;96047.63;;;6.08;100.00
6668;BME280;3370;47.712;9.082;2023-04-01T06:03:57;96034.41;;;5.98;99.88
6668;BME280;3370;47.712;9.082;2023-04-01T06:06:28;96036.03;;;6.01;100.00
6668;BME280;3370;47.712;9.082;2023-04-01T06:08:56;96048.66;;;6.04;100.00
6668;BME280;3370;47.712;9.082;2023-04-01T06:11:34;96046.16;;;6.02;100.00
6668;BME280;3370;47.712;9.082;2023-04-01T06:17:26;96042.31;;;6.12;98.29
6668;BME280;3370;47.712;9.082;2023-04-01T06:20:32;96048.66;;;6.23;100.00
6668;BME280;3370;47.712;9.082;2023-04-01T06:43:25;96048.63;;;6.62;91.33
6668;BME280;3370;47.712;9.082;2023-04-01T06:51:55;96044.25;;;6.83;92.70
6668;BME280;3370;47.712;9.082;2023-04-01T06:54:38;96060.63;;;6.79;91.29
6668;BME280;3370;47.712;9.082;2023-04-01T06:57:35;96040.25;;;6.78;92.60
6668;BME280;3370;47.712;9.082;2023-04-01T07:00:32;96049.78;;;6.74;91.88
6668;BME280;3370;47.712;9.082;2023-04-01T07:05:39;96045.53;;;6.75;92.90
6668;BME280;3370;47.712;9.082;2023-04-01T07:08:10;96041.50;;;6.88;93.28
6668;BME280;3370;47.712;9.082;2023-04-01T07:11:05;96031.56;;;6.82;91.05
6668;BME280;3370;47.712;9.082;2023-04-01T07:14:26;96040.59;;;6.89;92.51
6668;BME280;3370;47.712;9.082;2023-04-01T07:17:20;96027.59;;;6.94;92.71
6668;BME280;3370;47.712;9.082;2023-04-01T07:20:01;96020.78;;;7.12;92.87
6668;BME280;3370;47.712;9.082;2023-04-01T07:22:49;96022.13;;;7.01;90.67
6668;BME280;3370;47.712;9.082;2023-04-01T07:25:22;96024.25;;;7.10;90.66
6668;BME280;3370;47.712;9.082;2023-04-01T07:27:55;96022.47;;;7.13;90.49
6668;BME280;3370;47.712;9.082;2023-04-01T07:30:24;96023.97;;;7.17;88.99
6668;BME280;3370;47.712;9.082;2023-04-01T07:33:32;96028.03;;;7.21;87.96
6668;BME280;3370;47.712;9.082;2023-04-01T07:36:32;96033.94;;;7.21;86.62
6668;BME280;3370;47.712;9.082;2023-04-01T07:42:20;96048.41;;;7.22;88.28
6668;BME280;3370;47.712;9.082;2023-04-01T07:45:09;96033.81;;;7.24;90.52
6668;BME280;3370;47.712;9.082;2023-04-01T07:57:23;96055.09;;;7.25;88.37
6668;BME280;3370;47.712;9.082;2023-04-01T08:06:00;96059.25;;;7.27;89.87
6668;BME280;3370;47.712;9.082;2023-04-01T08:08:36;96067.13;;;7.23;88.98
6668;BME280;3370;47.712;9.082;2023-04-01T08:11:25;96049.84;;;7.28;87.87
6668;BME280;3370;47.712;9.082;2023-04-01T08:17:16;96049.78;;;7.29;89.44
6668;BME280;3370;47.712;9.082;2023-04-01T08:23:24;96041.56;;;7.23;89.85
6668;BME280;3370;47.712;9.082;2023-04-01T08:26:36;96042.47;;;7.39;89.95
6668;BME280;3370;47.712;9.082;2023-04-01T08:29:10;96048.47;;;7.21;85.97
6668;BME280;3370;47.712;9.082;2023-04-01T08:31:56;96036.31;;;7.26;87.56
6668;BME280;3370;47.712;9.082;2023-04-01T08:34:33;96051.03;;;7.21;86.34
6668;BME280;3370;47.712;9.082;2023-04-01T08:37:14;96036.59;;;7.20;90.35
6668;BME280;3370;47.712;9.082;2023-04-01T08:39:55;96049.72;;;7.12;89.72
6668;BME280;3370;47.712;9.082;2023-04-01T08:45:48;96057.06;;;7.20;90.49
6668;BME280;3370;47.712;9.082;2023-04-01T08:54:33;96066.94;;;7.08;91.21
6668;BME280;3370;47.712;9.082;2023-04-01T09:27:35;96057.94;;;6.82;91.81
6668;BME280;3370;47.712;9.082;2023-04-01T09:36:46;96056.69;;;6.91;92.09
6668;BME280;3370;47.712;9.082;2023-04-01T09:39:52;96073.41;;;6.98;92.90
6668;BME280;3370;47.712;9.082;2023-04-01T09:45:41;96108.75;;;7.07;89.26
6668;BME280;3370;47.712;9.082;2023-04-01T09:51:23;96071.34;;;7.24;92.03
6668;BME280;3370;47.712;9.082;2023-04-01T09:54:20;96087.94;;;7.15;89.01
6668;BME280;3370;47.712;9.082;2023-04-01T10:23:22;96064.91;;;7.69;85.61
6668;BME280;3370;47.712;9.082;2023-04-01T10:42:15;96072.22;;;7.77;84.85
6668;BME280;3370;47.712;9.082;2023-04-01T10:51:21;96085.75;;;7.79;87.72
6668;BME280;3370;47.712;9.082;2023-04-01T10:56:59;96071.66;;;7.70;89.47
6668;BME280;3370;47.712;9.082;2023-04-01T11:06:19;96064.06;;;7.68;88.56
6668;BME280;3370;47.712;9.082;2023-04-01T11:15:01;96057.88;;;7.90;85.99
6668;BME280;3370;47.712;9.082;2023-04-01T11:21:02;96057.06;;;8.07;85.16
6668;BME280;3370;47.712;9.082;2023-04-01T11:23:46;96058.28;;;8.00;84.39
6668;BME280;3370;47.712;9.082;2023-04-01T11:32:50;96058.84;;;8.38;82.49
6668;BME280;3370;47.712;9.082;2023-04-01T11:41:31;96048.84;;;8.67;80.18
6668;BME280;3370;47.712;9.082;2023-04-01T11:44:21;96062.91;;;8.76;79.24
6668;BME280;3370;47.712;9.082;2023-04-01T12:01:56;96084.22;;;8.76;77.96
6668;BME280;3370;47.712;9.082;2023-04-01T12:04:54;96070.41;;;8.95;78.77
6668;BME280;3370;47.712;9.082;2023-04-01T12:07:56;96066.53;;;9.19;78.71
6668;BME280;3370;47.712;9.082;2023-04-01T12:17:07;96079.03;;;8.94;76.67
6668;BME280;3370;47.712;9.082;2023-04-01T12:31:39;96100.47;;;8.26;82.16
6668;BME280;3370;47.712;9.082;2023-04-01T12:34:15;96118.66;;;8.04;84.73
6668;BME280;3370;47.712;9.082;2023-04-01T12:39:59;96113.00;;;8.15;84.02
6668;BME280;3370;47.712;9.082;2023-04-01T12:45:55;96091.25;;;8.39;80.91
6668;BME280;3370;47.712;9.082;2023-04-01T12:52:12;96105.50;;;8.45;83.49
6668;BME280;3370;47.712;9.082;2023-04-01T12:57:51;96116.34;;;8.33;83.22
6668;BME280;3370;47.712;9.082;2023-04-01T13:07:41;96090.16;;;8.45;85.33
6668;BME280;3370;47.712;9.082;2023-04-01T13:15:52;96088.41;;;8.46;85.24
6668;BME280;3370;47.712;9.082;2023-04-01T13:19:04;96091.13;;;8.42;83.67
6668;BME280;3370;47.712;9.082;2023-04-01T13:22:04;96091.47;;;8.35;83.24
6668;BME280;3370;47.712;9.082;2023-04-01T13:27:44;96105.44;;;8.29;84.34
6668;BME280;3370;47.712;9.082;2023-04-01T13:30:37;96104.16;;;8.38;83.57
6668;BME280;3370;47.712;9.082;2023-04-01T13:36:41;96091.47;;;8.35;82.89
6668;BME280;3370;47.712;9.082;2023-04-01T13:39:41;96091.03;;;8.26;82.94
6668;BME280;3370;47.712;9.082;2023-04-01T13:43:01;96086.59;;;8.30;83.74
6668;BME280;3370;47.712;9.082;2023-04-01T13:48:50;96093.16;;;8.36;82.65
6668;BME280;3370;47.712;9.082;2023-04-01T14:00:46;96103.84;;;8.44;85.40
6668;BME280;3370;47.712;9.082;2023-04-01T14:03:27;96094.56;;;8.41;86.75
6668;BME280;3370;47.712;9.082;2023-04-01T14:06:43;96096.53;;;8.36;87.28
6668;BME280;3370;47.712;9.082;2023-04-01T14:09:51;96091.16;;;8.58;87.07
6668;BME280;3370;47.712;9.082;2023-04-01T14:21:34;96084.19;;;8.60;87.05
6668;BME280;3370;47.712;9.082;2023-04-01T14:27:39;96067.84;;;8.79;84.87
6668;BME280;3370;47.712;9.082;2023-04-01T14:39:29;96066.88;;;8.81;85.11
6668;BME280;3370;47.712;9.082;2023-04-01T14:44:52;96075.31;;;8.99;84.56
6668;BME280;3370;47.712;9.082;2023-04-01T14:50:23;96099.16;;;8.52;89.60
6668;BME280;3370;47.712;9.082;2023-04-01T14:58:11;96110.19;;;8.19;92.63
6668;BME280;3370;47.712;9.082;2023-04-01T15:07:01;96098.25;;;8.53;88.68
6668;BME280;3370;47.712;9.082;2023-04-01T15:09:50;96093.44;;;8.47;90.13
6668;BME280;3370;47.712;9.082;2023-04-01T15:12:46;96097.44;;;8.53;87.43
6668;BME280;3370;47.712;9.082;2023-04-01T15:18:53;96113.22;;;8.61;84.56
6668;BME280;3370;47.712;9.082;2023-04-01T15:27:34;96120.94;;;8.77;86.21
6668;BME280;3370;47.712;9.082;2023-04-01T15:36:32;96120.56;;;8.51;84.50
6668;BME280;3370;47.712;9.082;2023-04-01T15:44:55;96098.25;;;8.53;83.68
6668;BME280;3370;47.712;9.082;2023-04-01T15:50:21;96095.38;;;8.59;83.71
6668;BME280;3370;47.712;9.082;2023-04-01T15:55:37;96088.59;;;8.41;83.31
6668;BME280;3370;47.712;9.082;2023-04-01T16:01:31;96077.00;;;8.51;83.37
6668;BME280;3370;47.712;9.082;2023-04-01T16:10:16;96081.06;;;8.55;82.92
6668;BME280;3370;47.712;9.082;2023-04-01T16:16:21;96095.59;;;8.55;82.06
6668;BME280;3370;47.712;9.082;2023-04-01T16:19:39;96086.84;;;8.43;82.02
6668;BME280;3370;47.712;9.082;2023-04-01T16:22:27;96096.47;;;8.38;82.95
6668;BME280;3370;47.712;9.082;2023-04-01T16:26:08;96091.34;;;8.38;81.88
6668;BME280;3370;47.712;9.082;2023-04-01T16:34:30;96100.84;;;8.36;82.21
6668;BME280;3370;47.712;9.082;2023-04-01T16:37:10;96103.47;;;8.34;81.88
6668;BME280;3370;47.712;9.082;2023-04-01T16:40:24;96096.84;;;8.48;80.22
6668;BME280;3370;47.712;9.082;2023-04-01T16:42:58;96087.50;;;8.47;80.47
6668;BME280;3370;47.712;9.082;2023-04-01T16:45:38;96097.94;;;8.59;80.88
6668;BME280;3370;47.712;9.082;2023-04-01T16:48:15;96100.59;;;8.58;78.72
6668;BME280;3370;47.712;9.082;2023-04-01T16:51:22;96105.72;;;8.58;80.33
6668;BME280;3370;47.712;9.082;2023-04-01T16:53:45;96106.78;;;8.70;79.71
6668;BME280;3370;47.712;9.082;2023-04-01T16:56:24;96102.00;;;8.63;80.31
6668;BME280;3370;47.712;9.082;2023-04-01T16:59:07;96097.47;;;8.69;80.92
6668;BME280;3370;47.712;9.082;2023-04-01T17:08:06;96113.00;;;8.66;82.29
6668;BME280;3370;47.712;9.082;2023-04-01T17:10:41;96116.47;;;8.80;79.66
6668;BME280;3370;47.712;9.082;2023-04-01T17:13:57;96110.19;;;8.86;80.55
6668;BME280;3370;47.712;9.082;2023-04-01T17:19:41;96126.06;;;8.77;81.53
6668;BME280;3370;47.712;9.082;2023-04-01T17:36:30;96149.56;;;8.52;82.40
6668;BME280;3370;47.712;9.082;2023-04-01T17:39:33;96148.59;;;8.54;82.80
6668;BME280;3370;47.712;9.082;2023-04-01T17:42:17;96165.19;;;8.47;81.91
6668;BME280;3370;47.712;9.082;2023-04-01T17:45:19;96160.22;;;8.44;83.03
6668;BME280;3370;47.712;9.082;2023-04-01T17:57:10;96155.19;;;8.41;81.72
6668;BME280;3370;47.712;9.082;2023-04-01T18:09:03;96161.25;;;8.22;84.58
6668;BME280;3370;47.712;9.082;2023-04-01T18:18:03;96168.84;;;8.06;86.15
6668;BME280;3370;47.712;9.082;2023-04-01T18:21:10;96180.56;;;8.12;86.83
6668;BME280;3370;47.712;9.082;2023-04-01T18:23:58;96184.00;;;8.11;87.34
6668;BME280;3370;47.712;9.082;2023-04-01T18:26:35;96176.25;;;8.13;85.63
6668;BME280;3370;47.712;9.082;2023-04-01T18:29:31;96177.66;;;8.01;87.25
6668;BME280;3370;47.712;9.082;2023-04-01T18:44:24;96178.69;;;7.79;88.97
6668;BME280;3370;47.712;9.082;2023-04-01T18:47:05;96180.06;;;7.86;89.40
6668;BME280;3370;47.712;9.082;2023-04-01T18:49:48;96182.38;;;7.74;90.25
6668;BME280;3370;47.712;9.082;2023-04-01T18:58:34;96196.03;;;7.74;90.73
6668;BME280;3370;47.712;9.082;2023-04-01T19:04:26;96208.13;;;7.71;91.95
6668;BME280;3370;47.712;9.082;2023-04-01T19:06:59;96212.63;;;7.65;92.03
6668;BME280;3370;47.712;9.082;2023-04-01T19:09:43;96212.72;;;7.64;92.39
6668;BME280;3370;47.712;9.082;2023-04-01T19:15:37;96217.50;;;7.53;93.06
6668;BME280;3370;47.712;9.082;2023-04-01T19:21:27;96223.38;;;7.55;92.59
6668;BME280;3370;47.712;9.082;2023-04-01T19:30:07;96227.72;;;7.53;91.11
6668;BME280;3370;47.712;9.082;2023-04-01T19:33:33;96228.34;;;7.58;90.95
6668;BME280;3370;47.712;9.082;2023-04-01T19:36:31;96225.25;;;7.51;90.56
6668;BME280;3370;47.712;9.082;2023-04-01T19:42:24;96234.22;;;7.41;90.60
6668;BME280;3370;47.712;9.082;2023-04-01T19:48:05;96223.50;;;7.52;89.33
6668;BME280;3370;47.712;9.082;2023-04-01T19:51:06;96241.78;;;7.44;90.12
6668;BME280;3370;47.712;9.082;2023-04-01T19:53:53;96240.94;;;7.43;88.54
6668;BME280;3370;47.712;9.082;2023-04-01T19:56:41;96239.41;;;7.39;89.48
6668;BME280;3370;47.712;9.082;2023-04-01T20:03:01;96253.09;;;7.38;89.54
6668;BME280;3370;47.712;9.082;2023-04-01T20:19:21;96245.09;;;7.27;90.24
6668;BME280;3370;47.712;9.082;2023-04-01T20:21:50;96256.22;;;7.26;90.87
6668;BME280;3370;47.712;9.082;2023-04-01T20:24:34;96250.59;;;7.18;92.25
6668;BME280;3370;47.712;9.082;2023-04-01T20:27:32;96256.88;;;7.10;93.53
6668;BME280;3370;47.712;9.082;2023-04-01T20:31:06;96246.66;;;7.10;94.43
6668;BME280;3370;47.712;9.082;2023-04-01T20:42:10;96272.72;;;7.00;94.47
6668;BME280;3370;47.712;9.082;2023-04-01T20:51:15;96282.22;;;6.96;94.50
6668;BME280;3370;47.712;9.082;2023-04-01T20:54:14;96285.03;;;6.90;94.27
6668;BME280;3370;47.712;9.082;2023-04-01T20:59:47;96286.19;;;6.83;94.72
6668;BME280;3370;47.712;9.082;2023-04-01T21:02:48;96287.22;;;6.79;94.80
6668;BME280;3370;47.712;9.082;2023-04-01T21:08:22;96287.47;;;6.72;95.38
6668;BME280;3370;47.712;9.082;2023-04-01T21:11:25;96290.91;;;6.71;95.77
6668;BME280;3370;47.712;9.082;2023-04-01T21:14:44;96296.41;;;6.62;96.72
6668;BME280;3370;47.712;9.082;2023-04-01T21:20:37;96298.72;;;6.68;97.51
6668;BME280;3370;47.712;9.082;2023-04-01T21:32:57;96301.25;;;6.68;98.64
6668;BME280;3370;47.712;9.082;2023-04-01T21:36:14;96315.44;;;6.55;99.84
6668;BME280;3370;47.712;9.082;2023-04-01T21:42:06;96313.91;;;6.51;100.00
6668;BME280;3370;47.712;9.082;2023-04-01T21:47:57;96319.19;;;6.46;100.00
6668;BME280;3370;47.712;9.082;2023-04-01T21:56:53;96330.44;;;6.63;99.42
6668;BME280;3370;47.712;9.082;2023-04-01T22:03:15;96340.44;;;6.47;99.86
6668;BME280;3370;47.712;9.082;2023-04-01T22:09:49;96341.84;;;6.33;100.00
6668;BME280;3370;47.712;9.082;2023-04-01T22:15:20;96349.38;;;6.37;99.56
6668;BME280;3370;47.712;9.082;2023-04-01T22:18:03;96349.81;;;6.26;100.00
6668;BME280;3370;47.712;9.082;2023-04-01T22:20:36;96349.56;;;6.32;99.79
6668;BME280;3370;47.712;9.082;2023-04-01T22:32:38;96356.81;;;6.21;99.74
6668;BME280;3370;47.712;9.082;2023-04-01T22:42:04;96361.44;;;6.11;100.00
6668;BME280;3370;47.712;9.082;2023-04-01T22:44:54;96358.91;;;6.11;100.00
6668;BME280;3370;47.712;9.082;2023-04-01T22:47:48;96370.09;;;6.07;100.00
6668;BME280;3370;47.712;9.082;2023-04-01T22:50:26;96373.31;;;6.12;100.00
6668;BME280;3370;47.712;9.082;2023-04-01T22:56:40;96376.75;;;6.11;100.00
6668;BME280;3370;47.712;9.082;2023-04-01T23:00:03;96374.84;;;6.16;99.62
6668;BME280;3370;47.712;9.082;2023-04-01T23:02:31;96380.09;;;6.13;100.00
6668;BME280;3370;47.712;9.082;2023-04-01T23:05:02;96380.38;;;6.27;96.66
6668;BME280;3370;47.712;9.082;2023-04-01T23:10:41;96379.94;;;6.16;96.44
6668;BME280;3370;47.712;9.082;2023-04-01T23:13:16;96384.53;;;6.08;96.84
6668;BME280;3370;47.712;9.082;2023-04-01T23:15:44;96378.59;;;6.29;95.53
6668;BME280;3370;47.712;9.082;2023-04-01T23:18:43;96374.63;;;6.22;96.08
6668;BME280;3370;47.712;9.082;2023-04-01T23:21:39;96374.84;;;6.16;95.66
6668;BME280;3370;47.712;9.082;2023-04-01T23:27:13;96374.22;;;6.11;95.41
6668;BME280;3370;47.712;9.082;2023-04-01T23:29:42;96371.50;;;6.14;95.56
6668;BME280;3370;47.712;9.082;2023-04-01T23:32:19;96368.97;;;6.14;96.41
6668;BME280;3370;47.712;9.082;2023-04-01T23:34:51;96374.25;;;6.09;95.79
6668;BME280;3370;47.712;9.082;2023-04-01T23:37:18;96384.22;;;6.16;95.71
6668;BME280;3370;47.712;9.082;2023-04-01T23:39:49;96380.78;;;6.17;94.58
6668;BME280;3370;47.712;9.082;2023-04-01T23:42:22;96386.63;;;6.20;95.02
6668;BME280;3370;47.712;9.082;2023-04-01T23:44:52;96380.09;;;6.13;95.31
6668;BME280;3370;47.712;9.082;2023-04-01T23:47:35;96385.41;;;6.07;95.11